Index of /20260427/WXO-DD/model_rdps/10km/12/072
Name Last modified Size Description
Parent Directory -
20260427T12Z_MSC_RDPS_AbsoluteVorticity_IsbL-0250_RLatLon0.09_PT072H.grib2 2026-04-27 15:02 506K
20260427T12Z_MSC_RDPS_AbsoluteVorticity_IsbL-0500_RLatLon0.09_PT072H.grib2 2026-04-27 15:02 573K
20260427T12Z_MSC_RDPS_AbsoluteVorticity_IsbL-0700_RLatLon0.09_PT072H.grib2 2026-04-27 15:02 618K
20260427T12Z_MSC_RDPS_AbsoluteVorticity_IsbL-0850_RLatLon0.09_PT072H.grib2 2026-04-27 15:02 773K
20260427T12Z_MSC_RDPS_AirTemp_AGL-120m_RLatLon0.09_PT072H.grib2 2026-04-27 15:02 379K
20260427T12Z_MSC_RDPS_AirTemp_AGL-2m_RLatLon0.09_PT072H.grib2 2026-04-27 15:02 629K
20260427T12Z_MSC_RDPS_AirTemp_AGL-40m_RLatLon0.09_PT072H.grib2 2026-04-27 15:02 397K
20260427T12Z_MSC_RDPS_AirTemp_AGL-80m_RLatLon0.09_PT072H.grib2 2026-04-27 15:02 388K
20260427T12Z_MSC_RDPS_AirTemp_IsbL-0001_RLatLon0.09_PT072H.grib2 2026-04-27 15:02 309K
20260427T12Z_MSC_RDPS_AirTemp_IsbL-0005_RLatLon0.09_PT072H.grib2 2026-04-27 15:02 292K
20260427T12Z_MSC_RDPS_AirTemp_IsbL-0010_RLatLon0.09_PT072H.grib2 2026-04-27 15:02 303K
20260427T12Z_MSC_RDPS_AirTemp_IsbL-0020_RLatLon0.09_PT072H.grib2 2026-04-27 15:02 317K
20260427T12Z_MSC_RDPS_AirTemp_IsbL-0030_RLatLon0.09_PT072H.grib2 2026-04-27 15:02 342K
20260427T12Z_MSC_RDPS_AirTemp_IsbL-0050_RLatLon0.09_PT072H.grib2 2026-04-27 15:02 315K
20260427T12Z_MSC_RDPS_AirTemp_IsbL-0100_RLatLon0.09_PT072H.grib2 2026-04-27 15:02 428K
20260427T12Z_MSC_RDPS_AirTemp_IsbL-0150_RLatLon0.09_PT072H.grib2 2026-04-27 15:02 425K
20260427T12Z_MSC_RDPS_AirTemp_IsbL-0175_RLatLon0.09_PT072H.grib2 2026-04-27 15:02 412K
20260427T12Z_MSC_RDPS_AirTemp_IsbL-0200_RLatLon0.09_PT072H.grib2 2026-04-27 15:02 416K
20260427T12Z_MSC_RDPS_AirTemp_IsbL-0225_RLatLon0.09_PT072H.grib2 2026-04-27 15:02 415K
20260427T12Z_MSC_RDPS_AirTemp_IsbL-0250_RLatLon0.09_PT072H.grib2 2026-04-27 15:02 423K
20260427T12Z_MSC_RDPS_AirTemp_IsbL-0275_RLatLon0.09_PT072H.grib2 2026-04-27 15:02 403K
20260427T12Z_MSC_RDPS_AirTemp_IsbL-0300_RLatLon0.09_PT072H.grib2 2026-04-27 15:02 410K
20260427T12Z_MSC_RDPS_AirTemp_IsbL-0350_RLatLon0.09_PT072H.grib2 2026-04-27 15:02 423K
20260427T12Z_MSC_RDPS_AirTemp_IsbL-0400_RLatLon0.09_PT072H.grib2 2026-04-27 15:02 425K
20260427T12Z_MSC_RDPS_AirTemp_IsbL-0450_RLatLon0.09_PT072H.grib2 2026-04-27 15:02 396K
20260427T12Z_MSC_RDPS_AirTemp_IsbL-0500_RLatLon0.09_PT072H.grib2 2026-04-27 15:02 406K
20260427T12Z_MSC_RDPS_AirTemp_IsbL-0550_RLatLon0.09_PT072H.grib2 2026-04-27 15:02 423K
20260427T12Z_MSC_RDPS_AirTemp_IsbL-0600_RLatLon0.09_PT072H.grib2 2026-04-27 15:02 442K
20260427T12Z_MSC_RDPS_AirTemp_IsbL-0650_RLatLon0.09_PT072H.grib2 2026-04-27 15:02 459K
20260427T12Z_MSC_RDPS_AirTemp_IsbL-0700_RLatLon0.09_PT072H.grib2 2026-04-27 15:02 481K
20260427T12Z_MSC_RDPS_AirTemp_IsbL-0750_RLatLon0.09_PT072H.grib2 2026-04-27 15:02 516K
20260427T12Z_MSC_RDPS_AirTemp_IsbL-0800_RLatLon0.09_PT072H.grib2 2026-04-27 15:02 564K
20260427T12Z_MSC_RDPS_AirTemp_IsbL-0850_RLatLon0.09_PT072H.grib2 2026-04-27 15:02 502K
20260427T12Z_MSC_RDPS_AirTemp_IsbL-0875_RLatLon0.09_PT072H.grib2 2026-04-27 15:02 525K
20260427T12Z_MSC_RDPS_AirTemp_IsbL-0900_RLatLon0.09_PT072H.grib2 2026-04-27 15:02 533K
20260427T12Z_MSC_RDPS_AirTemp_IsbL-0925_RLatLon0.09_PT072H.grib2 2026-04-27 15:02 529K
20260427T12Z_MSC_RDPS_AirTemp_IsbL-0950_RLatLon0.09_PT072H.grib2 2026-04-27 15:02 531K
20260427T12Z_MSC_RDPS_AirTemp_IsbL-0970_RLatLon0.09_PT072H.grib2 2026-04-27 15:02 521K
20260427T12Z_MSC_RDPS_AirTemp_IsbL-0985_RLatLon0.09_PT072H.grib2 2026-04-27 15:02 507K
20260427T12Z_MSC_RDPS_AirTemp_IsbL-1000_RLatLon0.09_PT072H.grib2 2026-04-27 15:02 493K
20260427T12Z_MSC_RDPS_AirTemp_IsbL-1015_RLatLon0.09_PT072H.grib2 2026-04-27 15:02 491K
20260427T12Z_MSC_RDPS_Albedo_Sfc_RLatLon0.09_PT072H.grib2 2026-04-27 15:02 154K
20260427T12Z_MSC_RDPS_CAPE_Sfc_RLatLon0.09_PT072H.grib2 2026-04-27 15:02 1.6M
20260427T12Z_MSC_RDPS_CIN_Sfc_RLatLon0.09_PT072H.grib2 2026-04-27 15:02 1.0M
20260427T12Z_MSC_RDPS_CloudWater_EAtm_RLatLon0.09_PT072H.grib2 2026-04-27 15:02 219K
20260427T12Z_MSC_RDPS_ConvectivePrecip-Accum_Sfc_RLatLon0.09_PT072H.grib2 2026-04-27 15:02 1.2M
20260427T12Z_MSC_RDPS_DewPointDepression_AGL-2m_RLatLon0.09_PT072H.grib2 2026-04-27 15:02 395K
20260427T12Z_MSC_RDPS_DewPointDepression_IsbL-0001_RLatLon0.09_PT072H.grib2 2026-04-27 15:02 193
20260427T12Z_MSC_RDPS_DewPointDepression_IsbL-0005_RLatLon0.09_PT072H.grib2 2026-04-27 15:02 193
20260427T12Z_MSC_RDPS_DewPointDepression_IsbL-0010_RLatLon0.09_PT072H.grib2 2026-04-27 15:02 193
20260427T12Z_MSC_RDPS_DewPointDepression_IsbL-0020_RLatLon0.09_PT072H.grib2 2026-04-27 15:02 193
20260427T12Z_MSC_RDPS_DewPointDepression_IsbL-0030_RLatLon0.09_PT072H.grib2 2026-04-27 15:02 193
20260427T12Z_MSC_RDPS_DewPointDepression_IsbL-0050_RLatLon0.09_PT072H.grib2 2026-04-27 15:02 84K
20260427T12Z_MSC_RDPS_DewPointDepression_IsbL-0100_RLatLon0.09_PT072H.grib2 2026-04-27 15:02 127K
20260427T12Z_MSC_RDPS_DewPointDepression_IsbL-0150_RLatLon0.09_PT072H.grib2 2026-04-27 15:02 146K
20260427T12Z_MSC_RDPS_DewPointDepression_IsbL-0175_RLatLon0.09_PT072H.grib2 2026-04-27 15:02 175K
20260427T12Z_MSC_RDPS_DewPointDepression_IsbL-0200_RLatLon0.09_PT072H.grib2 2026-04-27 15:02 214K
20260427T12Z_MSC_RDPS_DewPointDepression_IsbL-0225_RLatLon0.09_PT072H.grib2 2026-04-27 15:02 262K
20260427T12Z_MSC_RDPS_DewPointDepression_IsbL-0250_RLatLon0.09_PT072H.grib2 2026-04-27 15:02 299K
20260427T12Z_MSC_RDPS_DewPointDepression_IsbL-0275_RLatLon0.09_PT072H.grib2 2026-04-27 15:02 305K
20260427T12Z_MSC_RDPS_DewPointDepression_IsbL-0300_RLatLon0.09_PT072H.grib2 2026-04-27 15:02 324K
20260427T12Z_MSC_RDPS_DewPointDepression_IsbL-0350_RLatLon0.09_PT072H.grib2 2026-04-27 15:02 326K
20260427T12Z_MSC_RDPS_DewPointDepression_IsbL-0400_RLatLon0.09_PT072H.grib2 2026-04-27 15:02 337K
20260427T12Z_MSC_RDPS_DewPointDepression_IsbL-0450_RLatLon0.09_PT072H.grib2 2026-04-27 15:02 344K
20260427T12Z_MSC_RDPS_DewPointDepression_IsbL-0500_RLatLon0.09_PT072H.grib2 2026-04-27 15:02 349K
20260427T12Z_MSC_RDPS_DewPointDepression_IsbL-0550_RLatLon0.09_PT072H.grib2 2026-04-27 15:02 360K
20260427T12Z_MSC_RDPS_DewPointDepression_IsbL-0600_RLatLon0.09_PT072H.grib2 2026-04-27 15:02 377K
20260427T12Z_MSC_RDPS_DewPointDepression_IsbL-0650_RLatLon0.09_PT072H.grib2 2026-04-27 15:02 385K
20260427T12Z_MSC_RDPS_DewPointDepression_IsbL-0700_RLatLon0.09_PT072H.grib2 2026-04-27 15:02 390K
20260427T12Z_MSC_RDPS_DewPointDepression_IsbL-0750_RLatLon0.09_PT072H.grib2 2026-04-27 15:02 408K
20260427T12Z_MSC_RDPS_DewPointDepression_IsbL-0800_RLatLon0.09_PT072H.grib2 2026-04-27 15:02 435K
20260427T12Z_MSC_RDPS_DewPointDepression_IsbL-0850_RLatLon0.09_PT072H.grib2 2026-04-27 15:02 468K
20260427T12Z_MSC_RDPS_DewPointDepression_IsbL-0875_RLatLon0.09_PT072H.grib2 2026-04-27 15:02 474K
20260427T12Z_MSC_RDPS_DewPointDepression_IsbL-0900_RLatLon0.09_PT072H.grib2 2026-04-27 15:02 463K
20260427T12Z_MSC_RDPS_DewPointDepression_IsbL-0925_RLatLon0.09_PT072H.grib2 2026-04-27 15:02 448K
20260427T12Z_MSC_RDPS_DewPointDepression_IsbL-0950_RLatLon0.09_PT072H.grib2 2026-04-27 15:02 442K
20260427T12Z_MSC_RDPS_DewPointDepression_IsbL-0970_RLatLon0.09_PT072H.grib2 2026-04-27 15:02 434K
20260427T12Z_MSC_RDPS_DewPointDepression_IsbL-0985_RLatLon0.09_PT072H.grib2 2026-04-27 15:02 429K
20260427T12Z_MSC_RDPS_DewPointDepression_IsbL-1000_RLatLon0.09_PT072H.grib2 2026-04-27 15:02 426K
20260427T12Z_MSC_RDPS_DewPointDepression_IsbL-1015_RLatLon0.09_PT072H.grib2 2026-04-27 15:02 418K
20260427T12Z_MSC_RDPS_DewPoint_AGL-2m_RLatLon0.09_PT072H.grib2 2026-04-27 15:02 399K
20260427T12Z_MSC_RDPS_DownwardLongwaveRadiationFlux-Accum_Sfc_RLatLon0.09_PT072H.grib2 2026-04-27 15:02 425K
20260427T12Z_MSC_RDPS_DownwardShortwaveRadiationFlux-Accum_NTAtm_RLatLon0.09_PT072H.grib2 2026-04-27 15:02 136K
20260427T12Z_MSC_RDPS_DownwardShortwaveRadiationFlux-Accum_Sfc_RLatLon0.09_PT072H.grib2 2026-04-27 15:02 620K
20260427T12Z_MSC_RDPS_FreezingRain-Accum12h_Sfc_RLatLon0.09_PT072H.grib2 2026-04-27 15:02 89K
20260427T12Z_MSC_RDPS_FreezingRain-Accum1h_Sfc_RLatLon0.09_PT072H.grib2 2026-04-27 15:02 48K
20260427T12Z_MSC_RDPS_FreezingRain-Accum24h_Sfc_RLatLon0.09_PT072H.grib2 2026-04-27 15:02 115K
20260427T12Z_MSC_RDPS_FreezingRain-Accum3h_Sfc_RLatLon0.09_PT072H.grib2 2026-04-27 15:02 59K
20260427T12Z_MSC_RDPS_FreezingRain-Accum6h_Sfc_RLatLon0.09_PT072H.grib2 2026-04-27 15:02 74K
20260427T12Z_MSC_RDPS_FreezingRain-Accum_Sfc_RLatLon0.09_PT072H.grib2 2026-04-27 15:02 209K
20260427T12Z_MSC_RDPS_GeopotentialHeight_IsbL-0001_RLatLon0.09_PT072H.grib2 2026-04-27 15:02 240K
20260427T12Z_MSC_RDPS_GeopotentialHeight_IsbL-0005_RLatLon0.09_PT072H.grib2 2026-04-27 15:02 304K
20260427T12Z_MSC_RDPS_GeopotentialHeight_IsbL-0010_RLatLon0.09_PT072H.grib2 2026-04-27 15:02 306K
20260427T12Z_MSC_RDPS_GeopotentialHeight_IsbL-0020_RLatLon0.09_PT072H.grib2 2026-04-27 15:02 304K
20260427T12Z_MSC_RDPS_GeopotentialHeight_IsbL-0030_RLatLon0.09_PT072H.grib2 2026-04-27 15:02 305K
20260427T12Z_MSC_RDPS_GeopotentialHeight_IsbL-0050_RLatLon0.09_PT072H.grib2 2026-04-27 15:02 307K
20260427T12Z_MSC_RDPS_GeopotentialHeight_IsbL-0100_RLatLon0.09_PT072H.grib2 2026-04-27 15:02 284K
20260427T12Z_MSC_RDPS_GeopotentialHeight_IsbL-0150_RLatLon0.09_PT072H.grib2 2026-04-27 15:02 229K
20260427T12Z_MSC_RDPS_GeopotentialHeight_IsbL-0175_RLatLon0.09_PT072H.grib2 2026-04-27 15:02 263K
20260427T12Z_MSC_RDPS_GeopotentialHeight_IsbL-0200_RLatLon0.09_PT072H.grib2 2026-04-27 15:02 265K
20260427T12Z_MSC_RDPS_GeopotentialHeight_IsbL-0225_RLatLon0.09_PT072H.grib2 2026-04-27 15:02 266K
20260427T12Z_MSC_RDPS_GeopotentialHeight_IsbL-0250_RLatLon0.09_PT072H.grib2 2026-04-27 15:02 267K
20260427T12Z_MSC_RDPS_GeopotentialHeight_IsbL-0275_RLatLon0.09_PT072H.grib2 2026-04-27 15:02 266K
20260427T12Z_MSC_RDPS_GeopotentialHeight_IsbL-0300_RLatLon0.09_PT072H.grib2 2026-04-27 15:02 265K
20260427T12Z_MSC_RDPS_GeopotentialHeight_IsbL-0350_RLatLon0.09_PT072H.grib2 2026-04-27 15:02 230K
20260427T12Z_MSC_RDPS_GeopotentialHeight_IsbL-0400_RLatLon0.09_PT072H.grib2 2026-04-27 15:02 227K
20260427T12Z_MSC_RDPS_GeopotentialHeight_IsbL-0450_RLatLon0.09_PT072H.grib2 2026-04-27 15:02 295K
20260427T12Z_MSC_RDPS_GeopotentialHeight_IsbL-0500_RLatLon0.09_PT072H.grib2 2026-04-27 15:02 289K
20260427T12Z_MSC_RDPS_GeopotentialHeight_IsbL-0550_RLatLon0.09_PT072H.grib2 2026-04-27 15:02 285K
20260427T12Z_MSC_RDPS_GeopotentialHeight_IsbL-0600_RLatLon0.09_PT072H.grib2 2026-04-27 15:02 254K
20260427T12Z_MSC_RDPS_GeopotentialHeight_IsbL-0650_RLatLon0.09_PT072H.grib2 2026-04-27 15:02 252K
20260427T12Z_MSC_RDPS_GeopotentialHeight_IsbL-0700_RLatLon0.09_PT072H.grib2 2026-04-27 15:02 331K
20260427T12Z_MSC_RDPS_GeopotentialHeight_IsbL-0750_RLatLon0.09_PT072H.grib2 2026-04-27 15:02 334K
20260427T12Z_MSC_RDPS_GeopotentialHeight_IsbL-0800_RLatLon0.09_PT072H.grib2 2026-04-27 15:02 342K
20260427T12Z_MSC_RDPS_GeopotentialHeight_IsbL-0850_RLatLon0.09_PT072H.grib2 2026-04-27 15:02 385K
20260427T12Z_MSC_RDPS_GeopotentialHeight_IsbL-0875_RLatLon0.09_PT072H.grib2 2026-04-27 15:02 389K
20260427T12Z_MSC_RDPS_GeopotentialHeight_IsbL-0900_RLatLon0.09_PT072H.grib2 2026-04-27 15:02 393K
20260427T12Z_MSC_RDPS_GeopotentialHeight_IsbL-0925_RLatLon0.09_PT072H.grib2 2026-04-27 15:02 396K
20260427T12Z_MSC_RDPS_GeopotentialHeight_IsbL-0950_RLatLon0.09_PT072H.grib2 2026-04-27 15:02 400K
20260427T12Z_MSC_RDPS_GeopotentialHeight_IsbL-0970_RLatLon0.09_PT072H.grib2 2026-04-27 15:02 406K
20260427T12Z_MSC_RDPS_GeopotentialHeight_IsbL-0985_RLatLon0.09_PT072H.grib2 2026-04-27 15:02 414K
20260427T12Z_MSC_RDPS_GeopotentialHeight_IsbL-1000_RLatLon0.09_PT072H.grib2 2026-04-27 15:02 427K
20260427T12Z_MSC_RDPS_GeopotentialHeight_IsbL-1015_RLatLon0.09_PT072H.grib2 2026-04-27 15:02 443K
20260427T12Z_MSC_RDPS_Humidex_Sfc_RLatLon0.09_PT072H.grib2 2026-04-27 15:02 2.4M
20260427T12Z_MSC_RDPS_IcePellets-Accum12h_Sfc_RLatLon0.09_PT072H.grib2 2026-04-27 15:02 7.3K
20260427T12Z_MSC_RDPS_IcePellets-Accum1h_Sfc_RLatLon0.09_PT072H.grib2 2026-04-27 15:02 4.0K
20260427T12Z_MSC_RDPS_IcePellets-Accum24h_Sfc_RLatLon0.09_PT072H.grib2 2026-04-27 15:02 12K
20260427T12Z_MSC_RDPS_IcePellets-Accum3h_Sfc_RLatLon0.09_PT072H.grib2 2026-04-27 15:02 4.2K
20260427T12Z_MSC_RDPS_IcePellets-Accum6h_Sfc_RLatLon0.09_PT072H.grib2 2026-04-27 15:02 5.9K
20260427T12Z_MSC_RDPS_IcePellets-Accum_Sfc_RLatLon0.09_PT072H.grib2 2026-04-27 15:02 31K
20260427T12Z_MSC_RDPS_KIndex_Sfc_RLatLon0.09_PT072H.grib2 2026-04-27 15:02 2.5M
20260427T12Z_MSC_RDPS_LatentHeatNetFlux_Sfc_RLatLon0.09_PT072H.grib2 2026-04-27 15:02 415K
20260427T12Z_MSC_RDPS_LiftedIndex-MU-VT_IsbL-0500_RLatLon0.09_PT072H.grib2 2026-04-27 15:02 2.4M
20260427T12Z_MSC_RDPS_NetLongwaveRadiationFlux-Accum_Sfc_RLatLon0.09_PT072H.grib2 2026-04-27 15:02 470K
20260427T12Z_MSC_RDPS_NetShortwaveRadiationFlux-Accum_Sfc_RLatLon0.09_PT072H.grib2 2026-04-27 15:02 623K
20260427T12Z_MSC_RDPS_PlanetaryBoundaryLayerHeight_Sfc_RLatLon0.09_PT072H.grib2 2026-04-27 15:02 1.1M
20260427T12Z_MSC_RDPS_Precip-Accum12h_Sfc_RLatLon0.09_PT072H.grib2 2026-04-27 15:02 1.7M
20260427T12Z_MSC_RDPS_Precip-Accum1h_Sfc_RLatLon0.09_PT072H.grib2 2026-04-27 15:02 1.2M
20260427T12Z_MSC_RDPS_Precip-Accum24h_Sfc_RLatLon0.09_PT072H.grib2 2026-04-27 15:02 1.9M
20260427T12Z_MSC_RDPS_Precip-Accum3h_Sfc_RLatLon0.09_PT072H.grib2 2026-04-27 15:02 1.3M
20260427T12Z_MSC_RDPS_Precip-Accum6h_Sfc_RLatLon0.09_PT072H.grib2 2026-04-27 15:02 1.5M
20260427T12Z_MSC_RDPS_Precip-Accum_Sfc_RLatLon0.09_PT072H.grib2 2026-04-27 15:02 2.2M
20260427T12Z_MSC_RDPS_PrecipRate_Sfc_RLatLon0.09_PT072H.grib2 2026-04-27 15:02 179K
20260427T12Z_MSC_RDPS_PrecipType-Instant_Sfc_RLatLon0.09_PT072H.grib2 2026-04-27 15:02 566K
20260427T12Z_MSC_RDPS_Pressure-Trend3h_Sfc_RLatLon0.09_PT072H.grib2 2026-04-27 15:02 1.2M
20260427T12Z_MSC_RDPS_Pressure_MSL_RLatLon0.09_PT072H.grib2 2026-04-27 15:02 292K
20260427T12Z_MSC_RDPS_Pressure_PVU-1.5_RLatLon0.09_PT072H.grib2 2026-04-27 15:02 2.5M
20260427T12Z_MSC_RDPS_Pressure_PVU-1_RLatLon0.09_PT072H.grib2 2026-04-27 15:02 2.4M
20260427T12Z_MSC_RDPS_Pressure_PVU-2_RLatLon0.09_PT072H.grib2 2026-04-27 15:02 2.4M
20260427T12Z_MSC_RDPS_Pressure_Sfc_RLatLon0.09_PT072H.grib2 2026-04-27 15:02 500K
20260427T12Z_MSC_RDPS_RadiativeTemp_Sfc_RLatLon0.09_PT072H.grib2 2026-04-27 15:02 308K
20260427T12Z_MSC_RDPS_Rain-Accum12h_Sfc_RLatLon0.09_PT072H.grib2 2026-04-27 15:02 1.1M
20260427T12Z_MSC_RDPS_Rain-Accum1h_Sfc_RLatLon0.09_PT072H.grib2 2026-04-27 15:02 515K
20260427T12Z_MSC_RDPS_Rain-Accum24h_Sfc_RLatLon0.09_PT072H.grib2 2026-04-27 15:02 1.3M
20260427T12Z_MSC_RDPS_Rain-Accum3h_Sfc_RLatLon0.09_PT072H.grib2 2026-04-27 15:02 651K
20260427T12Z_MSC_RDPS_Rain-Accum6h_Sfc_RLatLon0.09_PT072H.grib2 2026-04-27 15:02 932K
20260427T12Z_MSC_RDPS_Rain-Accum_Sfc_RLatLon0.09_PT072H.grib2 2026-04-27 15:02 1.7M
20260427T12Z_MSC_RDPS_RelativeHumidity_AGL-2m_RLatLon0.09_PT072H.grib2 2026-04-27 15:02 1.0M
20260427T12Z_MSC_RDPS_RelativeHumidity_IsbL-0010_RLatLon0.09_PT072H.grib2 2026-04-27 15:02 629K
20260427T12Z_MSC_RDPS_RelativeHumidity_IsbL-0020_RLatLon0.09_PT072H.grib2 2026-04-27 15:02 670K
20260427T12Z_MSC_RDPS_RelativeHumidity_IsbL-0030_RLatLon0.09_PT072H.grib2 2026-04-27 15:02 606K
20260427T12Z_MSC_RDPS_RelativeHumidity_IsbL-0050_RLatLon0.09_PT072H.grib2 2026-04-27 15:02 321K
20260427T12Z_MSC_RDPS_RelativeHumidity_IsbL-0100_RLatLon0.09_PT072H.grib2 2026-04-27 15:02 279K
20260427T12Z_MSC_RDPS_RelativeHumidity_IsbL-0150_RLatLon0.09_PT072H.grib2 2026-04-27 15:02 406K
20260427T12Z_MSC_RDPS_RelativeHumidity_IsbL-0175_RLatLon0.09_PT072H.grib2 2026-04-27 15:02 477K
20260427T12Z_MSC_RDPS_RelativeHumidity_IsbL-0200_RLatLon0.09_PT072H.grib2 2026-04-27 15:02 552K
20260427T12Z_MSC_RDPS_RelativeHumidity_IsbL-0225_RLatLon0.09_PT072H.grib2 2026-04-27 15:02 623K
20260427T12Z_MSC_RDPS_RelativeHumidity_IsbL-0250_RLatLon0.09_PT072H.grib2 2026-04-27 15:02 696K
20260427T12Z_MSC_RDPS_RelativeHumidity_IsbL-0275_RLatLon0.09_PT072H.grib2 2026-04-27 15:02 720K
20260427T12Z_MSC_RDPS_RelativeHumidity_IsbL-0300_RLatLon0.09_PT072H.grib2 2026-04-27 15:02 766K
20260427T12Z_MSC_RDPS_RelativeHumidity_IsbL-0350_RLatLon0.09_PT072H.grib2 2026-04-27 15:02 784K
20260427T12Z_MSC_RDPS_RelativeHumidity_IsbL-0400_RLatLon0.09_PT072H.grib2 2026-04-27 15:02 796K
20260427T12Z_MSC_RDPS_RelativeHumidity_IsbL-0450_RLatLon0.09_PT072H.grib2 2026-04-27 15:02 799K
20260427T12Z_MSC_RDPS_RelativeHumidity_IsbL-0500_RLatLon0.09_PT072H.grib2 2026-04-27 15:02 806K
20260427T12Z_MSC_RDPS_RelativeHumidity_IsbL-0550_RLatLon0.09_PT072H.grib2 2026-04-27 15:02 822K
20260427T12Z_MSC_RDPS_RelativeHumidity_IsbL-0600_RLatLon0.09_PT072H.grib2 2026-04-27 15:02 846K
20260427T12Z_MSC_RDPS_RelativeHumidity_IsbL-0650_RLatLon0.09_PT072H.grib2 2026-04-27 15:02 860K
20260427T12Z_MSC_RDPS_RelativeHumidity_IsbL-0700_RLatLon0.09_PT072H.grib2 2026-04-27 15:02 879K
20260427T12Z_MSC_RDPS_RelativeHumidity_IsbL-0750_RLatLon0.09_PT072H.grib2 2026-04-27 15:02 916K
20260427T12Z_MSC_RDPS_RelativeHumidity_IsbL-0800_RLatLon0.09_PT072H.grib2 2026-04-27 15:02 972K
20260427T12Z_MSC_RDPS_RelativeHumidity_IsbL-0850_RLatLon0.09_PT072H.grib2 2026-04-27 15:02 1.0M
20260427T12Z_MSC_RDPS_RelativeHumidity_IsbL-0875_RLatLon0.09_PT072H.grib2 2026-04-27 15:02 1.1M
20260427T12Z_MSC_RDPS_RelativeHumidity_IsbL-0900_RLatLon0.09_PT072H.grib2 2026-04-27 15:02 1.1M
20260427T12Z_MSC_RDPS_RelativeHumidity_IsbL-0925_RLatLon0.09_PT072H.grib2 2026-04-27 15:02 1.1M
20260427T12Z_MSC_RDPS_RelativeHumidity_IsbL-0950_RLatLon0.09_PT072H.grib2 2026-04-27 15:02 1.1M
20260427T12Z_MSC_RDPS_RelativeHumidity_IsbL-0970_RLatLon0.09_PT072H.grib2 2026-04-27 15:02 1.1M
20260427T12Z_MSC_RDPS_RelativeHumidity_IsbL-0985_RLatLon0.09_PT072H.grib2 2026-04-27 15:02 1.0M
20260427T12Z_MSC_RDPS_RelativeHumidity_IsbL-1000_RLatLon0.09_PT072H.grib2 2026-04-27 15:02 1.0M
20260427T12Z_MSC_RDPS_RelativeHumidity_IsbL-1015_RLatLon0.09_PT072H.grib2 2026-04-27 15:02 1.0M
20260427T12Z_MSC_RDPS_Runoff-Accum_Sfc_RLatLon0.09_PT072H.grib2 2026-04-27 15:02 62K
20260427T12Z_MSC_RDPS_SWEATIndex_Sfc_RLatLon0.09_PT072H.grib2 2026-04-27 15:02 2.4M
20260427T12Z_MSC_RDPS_SeeingIndex_EAtm_RLatLon0.09_PT072H.grib2 2026-04-27 15:02 1.1M
20260427T12Z_MSC_RDPS_SensibleHeatNetFlux_Sfc_RLatLon0.09_PT072H.grib2 2026-04-27 15:02 302K
20260427T12Z_MSC_RDPS_ShowalterIndex_IsbL-0500_RLatLon0.09_PT072H.grib2 2026-04-27 15:02 2.6M
20260427T12Z_MSC_RDPS_SkyTransparencyIndex_EAtm_RLatLon0.09_PT072H.grib2 2026-04-27 15:02 691K
20260427T12Z_MSC_RDPS_Snow-Accum12h_Sfc_RLatLon0.09_PT072H.grib2 2026-04-27 15:02 572K
20260427T12Z_MSC_RDPS_Snow-Accum1h_Sfc_RLatLon0.09_PT072H.grib2 2026-04-27 15:02 460K
20260427T12Z_MSC_RDPS_Snow-Accum24h_Sfc_RLatLon0.09_PT072H.grib2 2026-04-27 15:02 636K
20260427T12Z_MSC_RDPS_Snow-Accum3h_Sfc_RLatLon0.09_PT072H.grib2 2026-04-27 15:02 463K
20260427T12Z_MSC_RDPS_Snow-Accum6h_Sfc_RLatLon0.09_PT072H.grib2 2026-04-27 15:02 556K
20260427T12Z_MSC_RDPS_Snow-Accum_Sfc_RLatLon0.09_PT072H.grib2 2026-04-27 15:02 835K
20260427T12Z_MSC_RDPS_SnowDensity_Sfc_RLatLon0.09_PT072H.grib2 2026-04-27 15:02 186K
20260427T12Z_MSC_RDPS_SnowDepth_Sfc_RLatLon0.09_PT072H.grib2 2026-04-27 15:02 692K
20260427T12Z_MSC_RDPS_SoilTemp_DBS-0to10cm_RLatLon0.09_PT072H.grib2 2026-04-27 15:02 238K
20260427T12Z_MSC_RDPS_SoilTemp_Sfc_RLatLon0.09_PT072H.grib2 2026-04-27 15:02 273K
20260427T12Z_MSC_RDPS_SoilVolumetricIceContent_Sfc_RLatLon0.09_PT072H.grib2 2026-04-27 15:02 166K
20260427T12Z_MSC_RDPS_SoilVolumetricWaterContent_DBS-0to10cm_RLatLon0.09_PT072H.grib2 2026-04-27 15:02 268K
20260427T12Z_MSC_RDPS_SoilVolumetricWaterContent_DBS-0to1cm_RLatLon0.09_PT072H.grib2 2026-04-27 15:02 338K
20260427T12Z_MSC_RDPS_SpecificHumidity_AGL-120m_RLatLon0.09_PT072H.grib2 2026-04-27 15:02 490K
20260427T12Z_MSC_RDPS_SpecificHumidity_AGL-2m_RLatLon0.09_PT072H.grib2 2026-04-27 15:02 657K
20260427T12Z_MSC_RDPS_SpecificHumidity_AGL-40m_RLatLon0.09_PT072H.grib2 2026-04-27 15:02 496K
20260427T12Z_MSC_RDPS_SpecificHumidity_AGL-80m_RLatLon0.09_PT072H.grib2 2026-04-27 15:02 492K
20260427T12Z_MSC_RDPS_SpecificHumidity_IsbL-0001_RLatLon0.09_PT072H.grib2 2026-04-27 15:02 348K
20260427T12Z_MSC_RDPS_SpecificHumidity_IsbL-0005_RLatLon0.09_PT072H.grib2 2026-04-27 15:02 351K
20260427T12Z_MSC_RDPS_SpecificHumidity_IsbL-0010_RLatLon0.09_PT072H.grib2 2026-04-27 15:02 391K
20260427T12Z_MSC_RDPS_SpecificHumidity_IsbL-0020_RLatLon0.09_PT072H.grib2 2026-04-27 15:02 377K
20260427T12Z_MSC_RDPS_SpecificHumidity_IsbL-0030_RLatLon0.09_PT072H.grib2 2026-04-27 15:02 432K
20260427T12Z_MSC_RDPS_SpecificHumidity_IsbL-0050_RLatLon0.09_PT072H.grib2 2026-04-27 15:02 445K
20260427T12Z_MSC_RDPS_SpecificHumidity_IsbL-0100_RLatLon0.09_PT072H.grib2 2026-04-27 15:02 445K
20260427T12Z_MSC_RDPS_SpecificHumidity_IsbL-0150_RLatLon0.09_PT072H.grib2 2026-04-27 15:02 450K
20260427T12Z_MSC_RDPS_SpecificHumidity_IsbL-0175_RLatLon0.09_PT072H.grib2 2026-04-27 15:02 432K
20260427T12Z_MSC_RDPS_SpecificHumidity_IsbL-0200_RLatLon0.09_PT072H.grib2 2026-04-27 15:02 448K
20260427T12Z_MSC_RDPS_SpecificHumidity_IsbL-0225_RLatLon0.09_PT072H.grib2 2026-04-27 15:02 454K
20260427T12Z_MSC_RDPS_SpecificHumidity_IsbL-0250_RLatLon0.09_PT072H.grib2 2026-04-27 15:02 558K
20260427T12Z_MSC_RDPS_SpecificHumidity_IsbL-0275_RLatLon0.09_PT072H.grib2 2026-04-27 15:02 472K
20260427T12Z_MSC_RDPS_SpecificHumidity_IsbL-0300_RLatLon0.09_PT072H.grib2 2026-04-27 15:02 446K
20260427T12Z_MSC_RDPS_SpecificHumidity_IsbL-0350_RLatLon0.09_PT072H.grib2 2026-04-27 15:02 561K
20260427T12Z_MSC_RDPS_SpecificHumidity_IsbL-0400_RLatLon0.09_PT072H.grib2 2026-04-27 15:02 517K
20260427T12Z_MSC_RDPS_SpecificHumidity_IsbL-0450_RLatLon0.09_PT072H.grib2 2026-04-27 15:02 566K
20260427T12Z_MSC_RDPS_SpecificHumidity_IsbL-0500_RLatLon0.09_PT072H.grib2 2026-04-27 15:02 503K
20260427T12Z_MSC_RDPS_SpecificHumidity_IsbL-0550_RLatLon0.09_PT072H.grib2 2026-04-27 15:02 578K
20260427T12Z_MSC_RDPS_SpecificHumidity_IsbL-0600_RLatLon0.09_PT072H.grib2 2026-04-27 15:02 635K
20260427T12Z_MSC_RDPS_SpecificHumidity_IsbL-0650_RLatLon0.09_PT072H.grib2 2026-04-27 15:02 554K
20260427T12Z_MSC_RDPS_SpecificHumidity_IsbL-0700_RLatLon0.09_PT072H.grib2 2026-04-27 15:02 593K
20260427T12Z_MSC_RDPS_SpecificHumidity_IsbL-0750_RLatLon0.09_PT072H.grib2 2026-04-27 15:02 644K
20260427T12Z_MSC_RDPS_SpecificHumidity_IsbL-0800_RLatLon0.09_PT072H.grib2 2026-04-27 15:02 706K
20260427T12Z_MSC_RDPS_SpecificHumidity_IsbL-0850_RLatLon0.09_PT072H.grib2 2026-04-27 15:02 793K
20260427T12Z_MSC_RDPS_SpecificHumidity_IsbL-0875_RLatLon0.09_PT072H.grib2 2026-04-27 15:02 824K
20260427T12Z_MSC_RDPS_SpecificHumidity_IsbL-0900_RLatLon0.09_PT072H.grib2 2026-04-27 15:02 837K
20260427T12Z_MSC_RDPS_SpecificHumidity_IsbL-0925_RLatLon0.09_PT072H.grib2 2026-04-27 15:02 836K
20260427T12Z_MSC_RDPS_SpecificHumidity_IsbL-0950_RLatLon0.09_PT072H.grib2 2026-04-27 15:02 838K
20260427T12Z_MSC_RDPS_SpecificHumidity_IsbL-0970_RLatLon0.09_PT072H.grib2 2026-04-27 15:02 829K
20260427T12Z_MSC_RDPS_SpecificHumidity_IsbL-0985_RLatLon0.09_PT072H.grib2 2026-04-27 15:02 820K
20260427T12Z_MSC_RDPS_SpecificHumidity_IsbL-1000_RLatLon0.09_PT072H.grib2 2026-04-27 15:02 674K
20260427T12Z_MSC_RDPS_SpecificHumidity_IsbL-1015_RLatLon0.09_PT072H.grib2 2026-04-27 15:02 666K
20260427T12Z_MSC_RDPS_SpecificHumidity_Sfc_RLatLon0.09_PT072H.grib2 2026-04-27 15:02 296K
20260427T12Z_MSC_RDPS_StormRelativeHelicity_EtaL-10000_RLatLon0.09_PT072H.grib2 2026-04-27 15:02 1.1M
20260427T12Z_MSC_RDPS_StormSeverityIndex_EtaL-10000_RLatLon0.09_PT072H.grib2 2026-04-27 15:02 1.2M
20260427T12Z_MSC_RDPS_Thickness_IsbL-0850to0700_RLatLon0.09_PT072H.grib2 2026-04-27 15:02 177K
20260427T12Z_MSC_RDPS_Thickness_IsbL-1000to0500_RLatLon0.09_PT072H.grib2 2026-04-27 15:02 198K
20260427T12Z_MSC_RDPS_Thickness_IsbL-1000to0850_RLatLon0.09_PT072H.grib2 2026-04-27 15:02 261K
20260427T12Z_MSC_RDPS_TotalCloudCover_Sfc_RLatLon0.09_PT072H.grib2 2026-04-27 15:02 671K
20260427T12Z_MSC_RDPS_TotalTotalsIndex_Sfc_RLatLon0.09_PT072H.grib2 2026-04-27 15:02 2.4M
20260427T12Z_MSC_RDPS_UVIndex-ClearSky_Sfc_RLatLon0.09_PT072H.grib2 2026-04-27 15:02 144K
20260427T12Z_MSC_RDPS_UVIndex_Sfc_RLatLon0.09_PT072H.grib2 2026-04-27 15:02 334K
20260427T12Z_MSC_RDPS_UpwardLongwaveRadiationFlux_NTAtm_RLatLon0.09_PT072H.grib2 2026-04-27 15:02 491K
20260427T12Z_MSC_RDPS_UpwardShortwaveRadiationFlux_NTAtm_RLatLon0.09_PT072H.grib2 2026-04-27 15:02 302K
20260427T12Z_MSC_RDPS_VerticalVelocity_IsbL-0250_RLatLon0.09_PT072H.grib2 2026-04-27 15:02 435K
20260427T12Z_MSC_RDPS_VerticalVelocity_IsbL-0500_RLatLon0.09_PT072H.grib2 2026-04-27 15:02 544K
20260427T12Z_MSC_RDPS_VerticalVelocity_IsbL-0700_RLatLon0.09_PT072H.grib2 2026-04-27 15:02 587K
20260427T12Z_MSC_RDPS_VerticalVelocity_IsbL-0850_RLatLon0.09_PT072H.grib2 2026-04-27 15:02 679K
20260427T12Z_MSC_RDPS_VerticalWindShear_EtaL-6500_RLatLon0.09_PT072H.grib2 2026-04-27 15:02 1.2M
20260427T12Z_MSC_RDPS_WindChill_Sfc_RLatLon0.09_PT072H.grib2 2026-04-27 15:02 1.2M
20260427T12Z_MSC_RDPS_WindDir_AGL-10m_RLatLon0.09_PT072H.grib2 2026-04-27 15:02 1.0M
20260427T12Z_MSC_RDPS_WindDir_AGL-120m_RLatLon0.09_PT072H.grib2 2026-04-27 15:02 622K
20260427T12Z_MSC_RDPS_WindDir_AGL-40m_RLatLon0.09_PT072H.grib2 2026-04-27 15:02 653K
20260427T12Z_MSC_RDPS_WindDir_AGL-80m_RLatLon0.09_PT072H.grib2 2026-04-27 15:02 633K
20260427T12Z_MSC_RDPS_WindDir_IsbL-0001_RLatLon0.09_PT072H.grib2 2026-04-27 15:02 303K
20260427T12Z_MSC_RDPS_WindDir_IsbL-0005_RLatLon0.09_PT072H.grib2 2026-04-27 15:02 369K
20260427T12Z_MSC_RDPS_WindDir_IsbL-0010_RLatLon0.09_PT072H.grib2 2026-04-27 15:02 374K
20260427T12Z_MSC_RDPS_WindDir_IsbL-0020_RLatLon0.09_PT072H.grib2 2026-04-27 15:02 416K
20260427T12Z_MSC_RDPS_WindDir_IsbL-0030_RLatLon0.09_PT072H.grib2 2026-04-27 15:02 420K
20260427T12Z_MSC_RDPS_WindDir_IsbL-0050_RLatLon0.09_PT072H.grib2 2026-04-27 15:02 434K
20260427T12Z_MSC_RDPS_WindDir_IsbL-0100_RLatLon0.09_PT072H.grib2 2026-04-27 15:02 435K
20260427T12Z_MSC_RDPS_WindDir_IsbL-0150_RLatLon0.09_PT072H.grib2 2026-04-27 15:02 413K
20260427T12Z_MSC_RDPS_WindDir_IsbL-0175_RLatLon0.09_PT072H.grib2 2026-04-27 15:02 432K
20260427T12Z_MSC_RDPS_WindDir_IsbL-0200_RLatLon0.09_PT072H.grib2 2026-04-27 15:02 448K
20260427T12Z_MSC_RDPS_WindDir_IsbL-0225_RLatLon0.09_PT072H.grib2 2026-04-27 15:02 455K
20260427T12Z_MSC_RDPS_WindDir_IsbL-0250_RLatLon0.09_PT072H.grib2 2026-04-27 15:02 457K
20260427T12Z_MSC_RDPS_WindDir_IsbL-0275_RLatLon0.09_PT072H.grib2 2026-04-27 15:02 480K
20260427T12Z_MSC_RDPS_WindDir_IsbL-0300_RLatLon0.09_PT072H.grib2 2026-04-27 15:02 474K
20260427T12Z_MSC_RDPS_WindDir_IsbL-0350_RLatLon0.09_PT072H.grib2 2026-04-27 15:02 496K
20260427T12Z_MSC_RDPS_WindDir_IsbL-0400_RLatLon0.09_PT072H.grib2 2026-04-27 15:02 511K
20260427T12Z_MSC_RDPS_WindDir_IsbL-0450_RLatLon0.09_PT072H.grib2 2026-04-27 15:02 525K
20260427T12Z_MSC_RDPS_WindDir_IsbL-0500_RLatLon0.09_PT072H.grib2 2026-04-27 15:02 542K
20260427T12Z_MSC_RDPS_WindDir_IsbL-0550_RLatLon0.09_PT072H.grib2 2026-04-27 15:02 567K
20260427T12Z_MSC_RDPS_WindDir_IsbL-0600_RLatLon0.09_PT072H.grib2 2026-04-27 15:02 596K
20260427T12Z_MSC_RDPS_WindDir_IsbL-0650_RLatLon0.09_PT072H.grib2 2026-04-27 15:02 636K
20260427T12Z_MSC_RDPS_WindDir_IsbL-0700_RLatLon0.09_PT072H.grib2 2026-04-27 15:02 679K
20260427T12Z_MSC_RDPS_WindDir_IsbL-0750_RLatLon0.09_PT072H.grib2 2026-04-27 15:02 722K
20260427T12Z_MSC_RDPS_WindDir_IsbL-0800_RLatLon0.09_PT072H.grib2 2026-04-27 15:02 787K
20260427T12Z_MSC_RDPS_WindDir_IsbL-0850_RLatLon0.09_PT072H.grib2 2026-04-27 15:02 863K
20260427T12Z_MSC_RDPS_WindDir_IsbL-0875_RLatLon0.09_PT072H.grib2 2026-04-27 15:02 896K
20260427T12Z_MSC_RDPS_WindDir_IsbL-0900_RLatLon0.09_PT072H.grib2 2026-04-27 15:02 917K
20260427T12Z_MSC_RDPS_WindDir_IsbL-0925_RLatLon0.09_PT072H.grib2 2026-04-27 15:02 929K
20260427T12Z_MSC_RDPS_WindDir_IsbL-0950_RLatLon0.09_PT072H.grib2 2026-04-27 15:02 929K
20260427T12Z_MSC_RDPS_WindDir_IsbL-0970_RLatLon0.09_PT072H.grib2 2026-04-27 15:02 939K
20260427T12Z_MSC_RDPS_WindDir_IsbL-0985_RLatLon0.09_PT072H.grib2 2026-04-27 15:02 949K
20260427T12Z_MSC_RDPS_WindDir_IsbL-1000_RLatLon0.09_PT072H.grib2 2026-04-27 15:02 963K
20260427T12Z_MSC_RDPS_WindDir_IsbL-1015_RLatLon0.09_PT072H.grib2 2026-04-27 15:02 1.0M
20260427T12Z_MSC_RDPS_WindGust-Max_AGL-10m_RLatLon0.09_PT072H.grib2 2026-04-27 15:02 1.0M
20260427T12Z_MSC_RDPS_WindGust-Min_AGL-10m_RLatLon0.09_PT072H.grib2 2026-04-27 15:02 1.0M
20260427T12Z_MSC_RDPS_WindGust_AGL-10m_RLatLon0.09_PT072H.grib2 2026-04-27 15:02 1.0M
20260427T12Z_MSC_RDPS_WindSpeed_AGL-10m_RLatLon0.09_PT072H.grib2 2026-04-27 15:02 845K
20260427T12Z_MSC_RDPS_WindSpeed_AGL-120m_RLatLon0.09_PT072H.grib2 2026-04-27 15:02 544K
20260427T12Z_MSC_RDPS_WindSpeed_AGL-40m_RLatLon0.09_PT072H.grib2 2026-04-27 15:02 544K
20260427T12Z_MSC_RDPS_WindSpeed_AGL-80m_RLatLon0.09_PT072H.grib2 2026-04-27 15:02 544K
20260427T12Z_MSC_RDPS_WindSpeed_IsbL-0001_RLatLon0.09_PT072H.grib2 2026-04-27 15:02 334K
20260427T12Z_MSC_RDPS_WindSpeed_IsbL-0005_RLatLon0.09_PT072H.grib2 2026-04-27 15:02 298K
20260427T12Z_MSC_RDPS_WindSpeed_IsbL-0010_RLatLon0.09_PT072H.grib2 2026-04-27 15:02 403K
20260427T12Z_MSC_RDPS_WindSpeed_IsbL-0020_RLatLon0.09_PT072H.grib2 2026-04-27 15:02 325K
20260427T12Z_MSC_RDPS_WindSpeed_IsbL-0030_RLatLon0.09_PT072H.grib2 2026-04-27 15:02 324K
20260427T12Z_MSC_RDPS_WindSpeed_IsbL-0050_RLatLon0.09_PT072H.grib2 2026-04-27 15:02 353K
20260427T12Z_MSC_RDPS_WindSpeed_IsbL-0100_RLatLon0.09_PT072H.grib2 2026-04-27 15:02 481K
20260427T12Z_MSC_RDPS_WindSpeed_IsbL-0150_RLatLon0.09_PT072H.grib2 2026-04-27 15:02 383K
20260427T12Z_MSC_RDPS_WindSpeed_IsbL-0175_RLatLon0.09_PT072H.grib2 2026-04-27 15:02 429K
20260427T12Z_MSC_RDPS_WindSpeed_IsbL-0200_RLatLon0.09_PT072H.grib2 2026-04-27 15:02 443K
20260427T12Z_MSC_RDPS_WindSpeed_IsbL-0225_RLatLon0.09_PT072H.grib2 2026-04-27 15:02 449K
20260427T12Z_MSC_RDPS_WindSpeed_IsbL-0250_RLatLon0.09_PT072H.grib2 2026-04-27 15:02 454K
20260427T12Z_MSC_RDPS_WindSpeed_IsbL-0275_RLatLon0.09_PT072H.grib2 2026-04-27 15:02 475K
20260427T12Z_MSC_RDPS_WindSpeed_IsbL-0300_RLatLon0.09_PT072H.grib2 2026-04-27 15:02 470K
20260427T12Z_MSC_RDPS_WindSpeed_IsbL-0350_RLatLon0.09_PT072H.grib2 2026-04-27 15:02 482K
20260427T12Z_MSC_RDPS_WindSpeed_IsbL-0400_RLatLon0.09_PT072H.grib2 2026-04-27 15:02 465K
20260427T12Z_MSC_RDPS_WindSpeed_IsbL-0450_RLatLon0.09_PT072H.grib2 2026-04-27 15:02 464K
20260427T12Z_MSC_RDPS_WindSpeed_IsbL-0500_RLatLon0.09_PT072H.grib2 2026-04-27 15:02 466K
20260427T12Z_MSC_RDPS_WindSpeed_IsbL-0550_RLatLon0.09_PT072H.grib2 2026-04-27 15:02 465K
20260427T12Z_MSC_RDPS_WindSpeed_IsbL-0600_RLatLon0.09_PT072H.grib2 2026-04-27 15:02 591K
20260427T12Z_MSC_RDPS_WindSpeed_IsbL-0650_RLatLon0.09_PT072H.grib2 2026-04-27 15:02 611K
20260427T12Z_MSC_RDPS_WindSpeed_IsbL-0700_RLatLon0.09_PT072H.grib2 2026-04-27 15:02 680K
20260427T12Z_MSC_RDPS_WindSpeed_IsbL-0750_RLatLon0.09_PT072H.grib2 2026-04-27 15:02 709K
20260427T12Z_MSC_RDPS_WindSpeed_IsbL-0800_RLatLon0.09_PT072H.grib2 2026-04-27 15:02 751K
20260427T12Z_MSC_RDPS_WindSpeed_IsbL-0850_RLatLon0.09_PT072H.grib2 2026-04-27 15:02 803K
20260427T12Z_MSC_RDPS_WindSpeed_IsbL-0875_RLatLon0.09_PT072H.grib2 2026-04-27 15:02 827K
20260427T12Z_MSC_RDPS_WindSpeed_IsbL-0900_RLatLon0.09_PT072H.grib2 2026-04-27 15:02 849K
20260427T12Z_MSC_RDPS_WindSpeed_IsbL-0925_RLatLon0.09_PT072H.grib2 2026-04-27 15:02 861K
20260427T12Z_MSC_RDPS_WindSpeed_IsbL-0950_RLatLon0.09_PT072H.grib2 2026-04-27 15:02 863K
20260427T12Z_MSC_RDPS_WindSpeed_IsbL-0970_RLatLon0.09_PT072H.grib2 2026-04-27 15:02 861K
20260427T12Z_MSC_RDPS_WindSpeed_IsbL-0985_RLatLon0.09_PT072H.grib2 2026-04-27 15:02 857K
20260427T12Z_MSC_RDPS_WindSpeed_IsbL-1000_RLatLon0.09_PT072H.grib2 2026-04-27 15:02 852K
20260427T12Z_MSC_RDPS_WindSpeed_IsbL-1015_RLatLon0.09_PT072H.grib2 2026-04-27 15:02 843K
20260427T12Z_MSC_RDPS_WindU_AGL-10m_RLatLon0.09_PT072H.grib2 2026-04-27 15:02 433K
20260427T12Z_MSC_RDPS_WindU_AGL-120m_RLatLon0.09_PT072H.grib2 2026-04-27 15:02 539K
20260427T12Z_MSC_RDPS_WindU_AGL-40m_RLatLon0.09_PT072H.grib2 2026-04-27 15:02 541K
20260427T12Z_MSC_RDPS_WindU_AGL-80m_RLatLon0.09_PT072H.grib2 2026-04-27 15:02 540K
20260427T12Z_MSC_RDPS_WindU_IsbL-0001_RLatLon0.09_PT072H.grib2 2026-04-27 15:02 244K
20260427T12Z_MSC_RDPS_WindU_IsbL-0005_RLatLon0.09_PT072H.grib2 2026-04-27 15:02 289K
20260427T12Z_MSC_RDPS_WindU_IsbL-0010_RLatLon0.09_PT072H.grib2 2026-04-27 15:02 301K
20260427T12Z_MSC_RDPS_WindU_IsbL-0020_RLatLon0.09_PT072H.grib2 2026-04-27 15:02 315K
20260427T12Z_MSC_RDPS_WindU_IsbL-0030_RLatLon0.09_PT072H.grib2 2026-04-27 15:02 316K
20260427T12Z_MSC_RDPS_WindU_IsbL-0050_RLatLon0.09_PT072H.grib2 2026-04-27 15:02 345K
20260427T12Z_MSC_RDPS_WindU_IsbL-0100_RLatLon0.09_PT072H.grib2 2026-04-27 15:02 437K
20260427T12Z_MSC_RDPS_WindU_IsbL-0150_RLatLon0.09_PT072H.grib2 2026-04-27 15:02 399K
20260427T12Z_MSC_RDPS_WindU_IsbL-0175_RLatLon0.09_PT072H.grib2 2026-04-27 15:02 422K
20260427T12Z_MSC_RDPS_WindU_IsbL-0200_RLatLon0.09_PT072H.grib2 2026-04-27 15:02 338K
20260427T12Z_MSC_RDPS_WindU_IsbL-0225_RLatLon0.09_PT072H.grib2 2026-04-27 15:02 342K
20260427T12Z_MSC_RDPS_WindU_IsbL-0250_RLatLon0.09_PT072H.grib2 2026-04-27 15:02 344K
20260427T12Z_MSC_RDPS_WindU_IsbL-0275_RLatLon0.09_PT072H.grib2 2026-04-27 15:02 361K
20260427T12Z_MSC_RDPS_WindU_IsbL-0300_RLatLon0.09_PT072H.grib2 2026-04-27 15:02 355K
20260427T12Z_MSC_RDPS_WindU_IsbL-0350_RLatLon0.09_PT072H.grib2 2026-04-27 15:02 366K
20260427T12Z_MSC_RDPS_WindU_IsbL-0400_RLatLon0.09_PT072H.grib2 2026-04-27 15:02 471K
20260427T12Z_MSC_RDPS_WindU_IsbL-0450_RLatLon0.09_PT072H.grib2 2026-04-27 15:02 470K
20260427T12Z_MSC_RDPS_WindU_IsbL-0500_RLatLon0.09_PT072H.grib2 2026-04-27 15:02 473K
20260427T12Z_MSC_RDPS_WindU_IsbL-0550_RLatLon0.09_PT072H.grib2 2026-04-27 15:02 472K
20260427T12Z_MSC_RDPS_WindU_IsbL-0600_RLatLon0.09_PT072H.grib2 2026-04-27 15:02 462K
20260427T12Z_MSC_RDPS_WindU_IsbL-0650_RLatLon0.09_PT072H.grib2 2026-04-27 15:02 480K
20260427T12Z_MSC_RDPS_WindU_IsbL-0700_RLatLon0.09_PT072H.grib2 2026-04-27 15:02 502K
20260427T12Z_MSC_RDPS_WindU_IsbL-0750_RLatLon0.09_PT072H.grib2 2026-04-27 15:02 528K
20260427T12Z_MSC_RDPS_WindU_IsbL-0800_RLatLon0.09_PT072H.grib2 2026-04-27 15:02 566K
20260427T12Z_MSC_RDPS_WindU_IsbL-0850_RLatLon0.09_PT072H.grib2 2026-04-27 15:02 619K
20260427T12Z_MSC_RDPS_WindU_IsbL-0875_RLatLon0.09_PT072H.grib2 2026-04-27 15:02 639K
20260427T12Z_MSC_RDPS_WindU_IsbL-0900_RLatLon0.09_PT072H.grib2 2026-04-27 15:02 651K
20260427T12Z_MSC_RDPS_WindU_IsbL-0925_RLatLon0.09_PT072H.grib2 2026-04-27 15:02 658K
20260427T12Z_MSC_RDPS_WindU_IsbL-0950_RLatLon0.09_PT072H.grib2 2026-04-27 15:02 656K
20260427T12Z_MSC_RDPS_WindU_IsbL-0970_RLatLon0.09_PT072H.grib2 2026-04-27 15:02 656K
20260427T12Z_MSC_RDPS_WindU_IsbL-0985_RLatLon0.09_PT072H.grib2 2026-04-27 15:02 653K
20260427T12Z_MSC_RDPS_WindU_IsbL-1000_RLatLon0.09_PT072H.grib2 2026-04-27 15:02 789K
20260427T12Z_MSC_RDPS_WindU_IsbL-1015_RLatLon0.09_PT072H.grib2 2026-04-27 15:02 829K
20260427T12Z_MSC_RDPS_WindV_AGL-10m_RLatLon0.09_PT072H.grib2 2026-04-27 15:02 432K
20260427T12Z_MSC_RDPS_WindV_AGL-120m_RLatLon0.09_PT072H.grib2 2026-04-27 15:02 537K
20260427T12Z_MSC_RDPS_WindV_AGL-40m_RLatLon0.09_PT072H.grib2 2026-04-27 15:02 538K
20260427T12Z_MSC_RDPS_WindV_AGL-80m_RLatLon0.09_PT072H.grib2 2026-04-27 15:02 537K
20260427T12Z_MSC_RDPS_WindV_IsbL-0001_RLatLon0.09_PT072H.grib2 2026-04-27 15:02 246K
20260427T12Z_MSC_RDPS_WindV_IsbL-0005_RLatLon0.09_PT072H.grib2 2026-04-27 15:02 290K
20260427T12Z_MSC_RDPS_WindV_IsbL-0010_RLatLon0.09_PT072H.grib2 2026-04-27 15:02 304K
20260427T12Z_MSC_RDPS_WindV_IsbL-0020_RLatLon0.09_PT072H.grib2 2026-04-27 15:02 319K
20260427T12Z_MSC_RDPS_WindV_IsbL-0030_RLatLon0.09_PT072H.grib2 2026-04-27 15:02 320K
20260427T12Z_MSC_RDPS_WindV_IsbL-0050_RLatLon0.09_PT072H.grib2 2026-04-27 15:02 346K
20260427T12Z_MSC_RDPS_WindV_IsbL-0100_RLatLon0.09_PT072H.grib2 2026-04-27 15:02 432K
20260427T12Z_MSC_RDPS_WindV_IsbL-0150_RLatLon0.09_PT072H.grib2 2026-04-27 15:02 396K
20260427T12Z_MSC_RDPS_WindV_IsbL-0175_RLatLon0.09_PT072H.grib2 2026-04-27 15:02 421K
20260427T12Z_MSC_RDPS_WindV_IsbL-0200_RLatLon0.09_PT072H.grib2 2026-04-27 15:02 338K
20260427T12Z_MSC_RDPS_WindV_IsbL-0225_RLatLon0.09_PT072H.grib2 2026-04-27 15:02 341K
20260427T12Z_MSC_RDPS_WindV_IsbL-0250_RLatLon0.09_PT072H.grib2 2026-04-27 15:02 342K
20260427T12Z_MSC_RDPS_WindV_IsbL-0275_RLatLon0.09_PT072H.grib2 2026-04-27 15:02 358K
20260427T12Z_MSC_RDPS_WindV_IsbL-0300_RLatLon0.09_PT072H.grib2 2026-04-27 15:02 353K
20260427T12Z_MSC_RDPS_WindV_IsbL-0350_RLatLon0.09_PT072H.grib2 2026-04-27 15:02 362K
20260427T12Z_MSC_RDPS_WindV_IsbL-0400_RLatLon0.09_PT072H.grib2 2026-04-27 15:02 467K
20260427T12Z_MSC_RDPS_WindV_IsbL-0450_RLatLon0.09_PT072H.grib2 2026-04-27 15:02 466K
20260427T12Z_MSC_RDPS_WindV_IsbL-0500_RLatLon0.09_PT072H.grib2 2026-04-27 15:02 468K
20260427T12Z_MSC_RDPS_WindV_IsbL-0550_RLatLon0.09_PT072H.grib2 2026-04-27 15:02 468K
20260427T12Z_MSC_RDPS_WindV_IsbL-0600_RLatLon0.09_PT072H.grib2 2026-04-27 15:02 475K
20260427T12Z_MSC_RDPS_WindV_IsbL-0650_RLatLon0.09_PT072H.grib2 2026-04-27 15:02 476K
20260427T12Z_MSC_RDPS_WindV_IsbL-0700_RLatLon0.09_PT072H.grib2 2026-04-27 15:02 498K
20260427T12Z_MSC_RDPS_WindV_IsbL-0750_RLatLon0.09_PT072H.grib2 2026-04-27 15:02 523K
20260427T12Z_MSC_RDPS_WindV_IsbL-0800_RLatLon0.09_PT072H.grib2 2026-04-27 15:02 562K
20260427T12Z_MSC_RDPS_WindV_IsbL-0850_RLatLon0.09_PT072H.grib2 2026-04-27 15:02 749K
20260427T12Z_MSC_RDPS_WindV_IsbL-0875_RLatLon0.09_PT072H.grib2 2026-04-27 15:02 772K
20260427T12Z_MSC_RDPS_WindV_IsbL-0900_RLatLon0.09_PT072H.grib2 2026-04-27 15:02 787K
20260427T12Z_MSC_RDPS_WindV_IsbL-0925_RLatLon0.09_PT072H.grib2 2026-04-27 15:02 797K
20260427T12Z_MSC_RDPS_WindV_IsbL-0950_RLatLon0.09_PT072H.grib2 2026-04-27 15:02 796K
20260427T12Z_MSC_RDPS_WindV_IsbL-0970_RLatLon0.09_PT072H.grib2 2026-04-27 15:02 796K
20260427T12Z_MSC_RDPS_WindV_IsbL-0985_RLatLon0.09_PT072H.grib2 2026-04-27 15:02 839K
20260427T12Z_MSC_RDPS_WindV_IsbL-1000_RLatLon0.09_PT072H.grib2 2026-04-27 15:02 833K
20260427T12Z_MSC_RDPS_WindV_IsbL-1015_RLatLon0.09_PT072H.grib2 2026-04-27 15:02 825K